Time;durP1;ratioP1;P1;durP2;ratioP2;P2;SDS_P1;SDS_P2;PMS_P1;PMS_P2;Temp;Humidity;BMP_temperature;BMP_pressure;BME280_temperature;BME280_humidity;BME280_pressure;Samples;Min_cycle;Max_cycle;Signal;HPM_P1;HPM_P2
2024/04/14 00:00:05;;;;;;;;;;;19.60;45.00;;;;;;8964766;26;19937;-58
2024/04/14 00:04:05;;;;;;;;;;;19.60;45.00;;;;;;8965154;26;19936;-58
2024/04/14 00:08:06;;;;;;;;;;;19.60;45.00;;;;;;8965139;26;19933;-57
2024/04/14 00:12:07;;;;;;;;;;;19.60;45.00;;;;;;8964574;26;19928;-57
2024/04/14 00:16:07;;;;;;;;;;;19.60;45.00;;;;;;8964391;26;19932;-58
2024/04/14 00:20:11;;;;;;;;;;;19.60;45.00;;;;;;8964343;26;19933;-58
2024/04/14 00:24:12;;;;;;;;;;;19.60;45.00;;;;;;8964320;26;19936;-58
2024/04/14 00:28:13;;;;;;;;;;;19.60;45.00;;;;;;8963621;26;19935;-59
2024/04/14 00:32:14;;;;;;;;;;;19.60;45.00;;;;;;8964461;26;19937;-58
2024/04/14 00:36:15;;;;;;;;;;;19.60;45.00;;;;;;8964044;26;19941;-58
2024/04/14 00:40:16;;;;;;;;;;;19.60;45.00;;;;;;8963677;26;19973;-58
2024/04/14 00:44:17;;;;;;;;;;;19.60;45.10;;;;;;8921716;26;20367;-58
2024/04/14 00:48:18;;;;;;;;;;;19.60;45.00;;;;;;8921964;26;20271;-58
2024/04/14 00:52:18;;;;;;;;;;;19.60;45.10;;;;;;8963564;26;19929;-57
2024/04/14 00:56:19;;;;;;;;;;;19.60;45.00;;;;;;8963429;26;19947;-57
2024/04/14 01:00:21;;;;;;;;;;;19.60;45.60;;;;;;8962966;26;19929;-58
2024/04/14 01:04:21;;;;;;;;;;;19.60;45.00;;;;;;8963754;26;19961;-59
2024/04/14 01:08:22;;;;;;;;;;;19.60;45.00;;;;;;8963227;26;19932;-58
2024/04/14 01:12:23;;;;;;;;;;;19.60;45.00;;;;;;8931132;26;19954;-59
2024/04/14 01:16:23;;;;;;;;;;;19.60;45.00;;;;;;8962781;26;19936;-58
2024/04/14 01:20:24;;;;;;;;;;;19.60;45.10;;;;;;8962229;26;20275;-59
2024/04/14 01:24:24;;;;;;;;;;;19.60;45.00;;;;;;8962936;26;19944;-60
2024/04/14 01:28:25;;;;;;;;;;;19.60;45.10;;;;;;8962621;26;19929;-58
2024/04/14 01:32:25;;;;;;;;;;;19.60;45.10;;;;;;8962339;26;20542;-58
2024/04/14 01:36:26;;;;;;;;;;;19.60;45.60;;;;;;8962056;26;19937;-59
2024/04/14 01:40:27;;;;;;;;;;;19.60;45.00;;;;;;8962157;26;20266;-59
2024/04/14 01:44:27;;;;;;;;;;;19.60;45.00;;;;;;8916866;26;20406;-58
2024/04/14 01:48:28;;;;;;;;;;;19.60;45.10;;;;;;8923718;26;20358;-57
2024/04/14 01:52:28;;;;;;;;;;;19.60;45.10;;;;;;8962141;26;19940;-58
2024/04/14 01:56:29;;;;;;;;;;;19.60;45.10;;;;;;8962053;26;19929;-59
2024/04/14 02:00:30;;;;;;;;;;;19.60;45.10;;;;;;8931371;26;19929;-58
2024/04/14 02:04:32;;;;;;;;;;;19.60;45.10;;;;;;8962055;26;19933;-59
2024/04/14 02:08:32;;;;;;;;;;;19.60;45.10;;;;;;8930548;26;19933;-58
2024/04/14 02:12:33;;;;;;;;;;;19.60;45.10;;;;;;8961460;26;20386;-58
2024/04/14 02:16:33;;;;;;;;;;;19.60;45.00;;;;;;8961811;26;19998;-58
2024/04/14 02:20:34;;;;;;;;;;;19.60;45.10;;;;;;8961225;26;19929;-58
2024/04/14 02:24:36;;;;;;;;;;;19.60;45.10;;;;;;8930309;26;19951;-57
2024/04/14 02:28:36;;;;;;;;;;;19.60;45.10;;;;;;8929605;26;19952;-58
2024/04/14 02:32:38;;;;;;;;;;;19.60;45.10;;;;;;8961133;26;20005;-59
2024/04/14 02:36:39;;;;;;;;;;;19.60;45.10;;;;;;8961665;26;19929;-57
2024/04/14 02:40:40;;;;;;;;;;;19.60;45.10;;;;;;8929772;26;19936;-58
2024/04/14 02:44:40;;;;;;;;;;;19.60;45.10;;;;;;8881770;26;19934;-58
2024/04/14 02:48:47;;;;;;;;;;;19.60;45.10;;;;;;8925366;26;20565;-58
2024/04/14 02:52:47;;;;;;;;;;;19.60;45.10;;;;;;8960568;26;20359;-58
2024/04/14 02:56:48;;;;;;;;;;;19.60;45.10;;;;;;8929095;26;20367;-58
2024/04/14 03:00:57;;;;;;;;;;;19.60;45.10;;;;;;8960417;26;19929;-58
2024/04/14 03:04:58;;;;;;;;;;;19.60;45.10;;;;;;8960494;26;19929;-58
2024/04/14 03:08:59;;;;;;;;;;;19.60;45.10;;;;;;8959989;26;19941;-59
2024/04/14 03:12:59;;;;;;;;;;;19.60;45.10;;;;;;8929237;26;19929;-58
2024/04/14 03:17:00;;;;;;;;;;;19.60;45.10;;;;;;8960119;26;20332;-58
2024/04/14 03:21:01;;;;;;;;;;;19.60;45.10;;;;;;8899431;26;20671;-59
2024/04/14 03:25:02;;;;;;;;;;;19.60;45.10;;;;;;8960273;26;19941;-58
2024/04/14 03:29:02;;;;;;;;;;;19.60;45.10;;;;;;8960027;26;19941;-57
2024/04/14 03:33:03;;;;;;;;;;;19.60;45.10;;;;;;8959309;26;19998;-57
2024/04/14 03:37:05;;;;;;;;;;;19.60;45.10;;;;;;8960285;26;19940;-58
2024/04/14 03:41:06;;;;;;;;;;;19.60;45.10;;;;;;8960052;26;19998;-59
2024/04/14 03:45:07;;;;;;;;;;;19.60;45.10;;;;;;8873588;26;19929;-58
2024/04/14 03:49:07;;;;;;;;;;;19.60;45.10;;;;;;8900843;26;19937;-58
2024/04/14 03:53:08;;;;;;;;;;;19.60;45.10;;;;;;8900748;26;20391;-57
2024/04/14 03:57:08;;;;;;;;;;;19.60;45.10;;;;;;8903808;26;19932;-58
2024/04/14 04:01:09;;;;;;;;;;;19.60;45.10;;;;;;8961414;26;19998;-58
2024/04/14 04:05:09;;;;;;;;;;;19.50;45.10;;;;;;8964564;26;19929;-58
2024/04/14 04:09:10;;;;;;;;;;;19.60;45.10;;;;;;8965363;26;19929;-58
2024/04/14 04:13:10;;;;;;;;;;;19.50;45.10;;;;;;8937841;26;20369;-58
2024/04/14 04:17:11;;;;;;;;;;;19.50;45.10;;;;;;8905675;26;19930;-57
2024/04/14 04:21:12;;;;;;;;;;;19.60;45.20;;;;;;8905815;26;19929;-58
2024/04/14 04:25:12;;;;;;;;;;;19.60;45.20;;;;;;8874760;26;20021;-59
2024/04/14 04:29:13;;;;;;;;;;;19.50;45.60;;;;;;8905416;26;20263;-58
2024/04/14 04:33:13;;;;;;;;;;;19.50;45.10;;;;;;8919161;26;19929;-59
2024/04/14 04:37:14;;;;;;;;;;;19.60;45.10;;;;;;8964386;26;20383;-59
2024/04/14 04:41:14;;;;;;;;;;;19.50;45.10;;;;;;8963610;26;19929;-58
2024/04/14 04:45:15;;;;;;;;;;;19.60;45.20;;;;;;9022598;26;19965;-57
2024/04/14 04:49:16;;;;;;;;;;;19.50;45.10;;;;;;9023483;26;19935;-58
2024/04/14 04:53:16;;;;;;;;;;;19.50;45.10;;;;;;9022693;26;20007;-56
2024/04/14 04:57:17;;;;;;;;;;;19.50;45.10;;;;;;9022802;26;19952;-58
2024/04/14 05:01:18;;;;;;;;;;;19.50;45.10;;;;;;9022943;26;19943;-57
2024/04/14 05:05:20;;;;;;;;;;;19.50;45.10;;;;;;9023042;26;19936;-58
2024/04/14 05:09:20;;;;;;;;;;;19.50;45.10;;;;;;9022719;26;19935;-59
2024/04/14 05:13:21;;;;;;;;;;;19.50;45.10;;;;;;9021399;26;19956;-58
2024/04/14 05:17:22;;;;;;;;;;;19.50;45.10;;;;;;9022676;26;20358;-59
2024/04/14 05:21:22;;;;;;;;;;;19.60;45.20;;;;;;9022324;26;19928;-58
2024/04/14 05:25:23;;;;;;;;;;;19.50;45.10;;;;;;9021982;26;19940;-58
2024/04/14 05:29:25;;;;;;;;;;;19.60;45.10;;;;;;9022748;26;20413;-57
2024/04/14 05:33:26;;;;;;;;;;;19.60;45.00;;;;;;9022589;26;19957;-57
2024/04/14 05:37:26;;;;;;;;;;;19.70;45.00;;;;;;9022678;26;19944;-57
2024/04/14 05:41:27;;;;;;;;;;;19.70;44.90;;;;;;9022176;26;20251;-57
2024/04/14 05:45:28;;;;;;;;;;;19.70;44.90;;;;;;9022292;26;19932;-56
2024/04/14 05:49:29;;;;;;;;;;;19.70;44.90;;;;;;8960975;26;19964;-57
2024/04/14 05:53:29;;;;;;;;;;;19.70;44.90;;;;;;8962711;26;19936;-57
2024/04/14 05:57:30;;;;;;;;;;;19.70;44.90;;;;;;9002569;26;20026;-57
2024/04/14 06:01:30;;;;;;;;;;;19.70;44.90;;;;;;9021620;26;19936;-56
2024/04/14 06:05:31;;;;;;;;;;;19.70;44.90;;;;;;9021395;26;19939;-57
2024/04/14 06:09:32;;;;;;;;;;;19.70;44.90;;;;;;9021861;26;19929;-57
2024/04/14 06:13:32;;;;;;;;;;;19.70;44.90;;;;;;9021797;26;20438;-57
2024/04/14 06:17:33;;;;;;;;;;;19.70;44.90;;;;;;9021059;26;19936;-57
2024/04/14 06:21:33;;;;;;;;;;;19.70;44.90;;;;;;9021007;26;19953;-57
2024/04/14 06:25:34;;;;;;;;;;;19.70;44.90;;;;;;9020363;26;19953;-57
2024/04/14 06:29:35;;;;;;;;;;;19.70;45.00;;;;;;9021041;26;19938;-57
2024/04/14 06:33:35;;;;;;;;;;;19.70;45.00;;;;;;8959513;26;19944;-58
2024/04/14 06:37:36;;;;;;;;;;;19.70;45.00;;;;;;8961726;26;20288;-58
2024/04/14 06:41:37;;;;;;;;;;;19.70;45.00;;;;;;8959666;26;20014;-57
2024/04/14 06:45:38;;;;;;;;;;;19.70;44.90;;;;;;8960641;26;19998;-58
2024/04/14 06:49:39;;;;;;;;;;;19.70;44.90;;;;;;8961048;26;20279;-57
2024/04/14 06:53:39;;;;;;;;;;;19.70;44.90;;;;;;8959001;26;19933;-57
2024/04/14 06:57:40;;;;;;;;;;;19.70;44.90;;;;;;8960098;26;19933;-58
2024/04/14 07:01:40;;;;;;;;;;;19.70;44.90;;;;;;8960837;26;19936;-58
2024/04/14 07:05:41;;;;;;;;;;;19.70;44.90;;;;;;8960153;26;19944;-58
2024/04/14 07:09:42;;;;;;;;;;;19.70;44.90;;;;;;8960190;26;19970;-58
2024/04/14 07:13:42;;;;;;;;;;;19.70;45.00;;;;;;8960547;26;19984;-59
2024/04/14 07:17:43;;;;;;;;;;;19.60;44.90;;;;;;8960548;26;19933;-58
2024/04/14 07:21:43;;;;;;;;;;;19.70;44.90;;;;;;8959983;26;20288;-59
2024/04/14 07:25:44;;;;;;;;;;;19.70;44.90;;;;;;8959789;26;19936;-58
2024/04/14 07:29:44;;;;;;;;;;;19.70;44.90;;;;;;8959606;26;19937;-58
2024/04/14 07:33:45;;;;;;;;;;;19.70;44.90;;;;;;8996344;26;19928;-58
2024/04/14 07:37:45;;;;;;;;;;;19.70;44.90;;;;;;8991886;26;20255;-58
2024/04/14 07:41:46;;;;;;;;;;;19.70;45.00;;;;;;9024499;26;19929;-57
2024/04/14 07:45:47;;;;;;;;;;;19.70;45.00;;;;;;9024684;26;19928;-58
2024/04/14 07:49:48;;;;;;;;;;;19.70;45.00;;;;;;9024807;26;19935;-58
2024/04/14 07:53:48;;;;;;;;;;;19.70;44.90;;;;;;9024214;26;19933;-58
2024/04/14 07:57:49;;;;;;;;;;;19.70;44.90;;;;;;9024664;26;20277;-57
2024/04/14 08:01:49;;;;;;;;;;;19.70;45.00;;;;;;9024209;26;20532;-58
2024/04/14 08:05:50;;;;;;;;;;;19.70;44.90;;;;;;9023803;26;19978;-58
2024/04/14 08:09:51;;;;;;;;;;;19.70;45.00;;;;;;9024150;26;19939;-57
2024/04/14 08:13:53;;;;;;;;;;;19.70;45.00;;;;;;9024451;26;19929;-56
2024/04/14 08:17:57;;;;;;;;;;;19.70;45.00;;;;;;9023946;26;19929;-57
2024/04/14 08:21:58;;;;;;;;;;;19.70;44.90;;;;;;8991980;26;19964;-57
2024/04/14 08:26:02;;;;;;;;;;;19.70;45.00;;;;;;9023640;26;20005;-58
2024/04/14 08:30:02;;;;;;;;;;;19.70;44.90;;;;;;9023230;26;20543;-57
2024/04/14 08:34:03;;;;;;;;;;;19.70;45.00;;;;;;9023610;26;19929;-56
2024/04/14 08:38:04;;;;;;;;;;;19.70;44.90;;;;;;9023755;26;19939;-58
2024/04/14 08:42:09;;;;;;;;;;;19.70;45.00;;;;;;9023051;26;19929;-58
2024/04/14 08:46:16;;;;;;;;;;;19.70;44.90;;;;;;9023207;26;19932;-58
2024/04/14 08:50:17;;;;;;;;;;;19.70;44.90;;;;;;9023114;26;19940;-57
2024/04/14 08:54:17;;;;;;;;;;;19.70;44.90;;;;;;9023060;26;19936;-57
2024/04/14 08:58:20;;;;;;;;;;;19.70;44.90;;;;;;9022725;26;19936;-57
2024/04/14 09:02:21;;;;;;;;;;;19.70;45.00;;;;;;9023269;26;20327;-57
2024/04/14 09:06:22;;;;;;;;;;;19.60;45.00;;;;;;9022648;26;19940;-57
2024/04/14 09:10:23;;;;;;;;;;;19.60;45.00;;;;;;9022680;26;19936;-57
2024/04/14 09:14:24;;;;;;;;;;;19.60;45.00;;;;;;9022801;26;19936;-57
2024/04/14 09:18:24;;;;;;;;;;;19.60;45.00;;;;;;8990786;26;19984;-57
2024/04/14 09:22:25;;;;;;;;;;;19.60;45.00;;;;;;8990566;26;19932;-57
2024/04/14 09:26:26;;;;;;;;;;;19.60;45.00;;;;;;9022426;26;19929;-57
2024/04/14 09:30:26;;;;;;;;;;;19.60;45.10;;;;;;9021982;26;19939;-57
2024/04/14 09:34:27;;;;;;;;;;;19.60;45.10;;;;;;8974575;26;19975;-56
2024/04/14 09:38:28;;;;;;;;;;;19.60;45.10;;;;;;8962555;26;19937;-57
2024/04/14 09:42:29;;;;;;;;;;;19.60;45.10;;;;;;8962194;26;19937;-57
2024/04/14 09:46:32;;;;;;;;;;;19.60;45.10;;;;;;8962192;26;19933;-57
2024/04/14 09:50:34;;;;;;;;;;;19.60;45.10;;;;;;8962037;26;19929;-57
2024/04/14 09:54:35;;;;;;;;;;;19.60;45.10;;;;;;8962180;26;20362;-57
2024/04/14 09:58:36;;;;;;;;;;;19.60;45.10;;;;;;8961263;26;19991;-57
2024/04/14 10:02:40;;;;;;;;;;;19.60;45.10;;;;;;8962410;26;19929;-58
2024/04/14 10:06:41;;;;;;;;;;;19.60;45.10;;;;;;8961729;26;19929;-57
2024/04/14 10:10:42;;;;;;;;;;;19.60;45.10;;;;;;8961903;26;19979;-59
2024/04/14 10:14:49;;;;;;;;;;;19.60;45.10;;;;;;8962666;26;19937;-58
2024/04/14 10:18:50;;;;;;;;;;;19.60;45.10;;;;;;8962011;26;19959;-58
2024/04/14 10:22:50;;;;;;;;;;;19.60;45.10;;;;;;8961493;26;19929;-58
2024/04/14 10:26:51;;;;;;;;;;;19.60;45.10;;;;;;8961700;26;19940;-58
2024/04/14 10:31:01;;;;;;;;;;;19.60;45.10;;;;;;8960956;26;19937;-58
2024/04/14 10:35:12;;;;;;;;;;;19.60;45.10;;;;;;9017204;26;19935;-57
2024/04/14 10:39:16;;;;;;;;;;;19.60;45.10;;;;;;8989113;26;19978;-58
2024/04/14 10:43:21;;;;;;;;;;;19.60;45.10;;;;;;9019611;26;19928;-58
2024/04/14 10:47:23;;;;;;;;;;;19.60;45.10;;;;;;9019220;26;20449;-58
2024/04/14 10:51:23;;;;;;;;;;;19.60;45.10;;;;;;9020449;26;19928;-58
2024/04/14 10:55:28;;;;;;;;;;;19.60;45.10;;;;;;9019932;26;20004;-57
2024/04/14 10:59:28;;;;;;;;;;;19.60;45.10;;;;;;9020234;26;19960;-57
2024/04/14 11:03:30;;;;;;;;;;;19.60;45.70;;;;;;9019799;26;19928;-59
2024/04/14 11:07:31;;;;;;;;;;;19.60;45.20;;;;;;9019974;26;19932;-57
2024/04/14 11:11:31;;;;;;;;;;;19.60;45.20;;;;;;9018699;26;19933;-56
2024/04/14 11:15:32;;;;;;;;;;;19.60;45.20;;;;;;8987856;26;19936;-58
2024/04/14 11:19:32;;;;;;;;;;;19.60;45.20;;;;;;9020172;26;19952;-57
2024/04/14 11:23:33;;;;;;;;;;;19.60;45.20;;;;;;9019354;26;20311;-58
2024/04/14 11:27:33;;;;;;;;;;;19.50;45.10;;;;;;8987141;26;19932;-57
2024/04/14 11:31:35;;;;;;;;;;;19.60;45.20;;;;;;9019336;26;20001;-57
2024/04/14 11:35:36;;;;;;;;;;;19.60;45.20;;;;;;9019415;26;19936;-57
2024/04/14 11:39:36;;;;;;;;;;;19.50;45.20;;;;;;9019428;26;19935;-57
2024/04/14 11:43:37;;;;;;;;;;;19.60;45.20;;;;;;9018937;26;20001;-58
2024/04/14 11:47:38;;;;;;;;;;;19.50;45.20;;;;;;9018579;26;20370;-57
2024/04/14 11:51:38;;;;;;;;;;;19.50;45.20;;;;;;9018591;26;20382;-58
2024/04/14 11:55:39;;;;;;;;;;;19.50;45.20;;;;;;9018341;26;19933;-57
2024/04/14 11:59:39;;;;;;;;;;;19.60;45.20;;;;;;9018972;26;20328;-57
2024/04/14 12:03:40;;;;;;;;;;;19.60;45.20;;;;;;8986913;26;19935;-57
2024/04/14 12:07:40;;;;;;;;;;;19.60;45.20;;;;;;9018405;26;19939;-58
2024/04/14 12:11:41;;;;;;;;;;;19.60;45.70;;;;;;9018504;26;20357;-57
2024/04/14 12:15:42;;;;;;;;;;;19.60;45.20;;;;;;8986403;26;19928;-58
2024/04/14 12:19:42;;;;;;;;;;;19.50;45.10;;;;;;9018158;26;20340;-58
2024/04/14 12:23:44;;;;;;;;;;;19.60;45.20;;;;;;8990844;26;19956;-58
2024/04/14 12:27:45;;;;;;;;;;;19.60;45.20;;;;;;9024028;26;19935;-59
2024/04/14 12:31:45;;;;;;;;;;;19.60;45.20;;;;;;9023851;26;19953;-58
2024/04/14 12:35:46;;;;;;;;;;;19.60;45.20;;;;;;9023560;26;19928;-58
2024/04/14 12:39:46;;;;;;;;;;;19.60;45.20;;;;;;9023663;26;19929;-57
2024/04/14 12:43:47;;;;;;;;;;;19.60;45.20;;;;;;9023679;26;20369;-59
2024/04/14 12:47:48;;;;;;;;;;;19.60;45.20;;;;;;9023379;26;19929;-59
2024/04/14 12:51:49;;;;;;;;;;;19.60;45.20;;;;;;9023150;26;19929;-56
2024/04/14 12:55:49;;;;;;;;;;;19.50;45.20;;;;;;9023092;26;19928;-58
2024/04/14 12:59:50;;;;;;;;;;;19.60;45.20;;;;;;9023206;26;19939;-59
2024/04/14 13:03:51;;;;;;;;;;;19.60;45.20;;;;;;9022703;26;19996;-57
2024/04/14 13:07:51;;;;;;;;;;;19.60;45.20;;;;;;9023258;26;19937;-58
2024/04/14 13:11:52;;;;;;;;;;;19.60;45.20;;;;;;9023094;26;19929;-58
2024/04/14 13:15:53;;;;;;;;;;;19.60;45.20;;;;;;9022414;26;20434;-58
2024/04/14 13:19:53;;;;;;;;;;;19.60;45.20;;;;;;9022659;26;19929;-59
2024/04/14 13:23:54;;;;;;;;;;;19.60;45.10;;;;;;8990326;26;19997;-59
2024/04/14 13:27:55;;;;;;;;;;;19.60;45.10;;;;;;9022828;26;20269;-59
2024/04/14 13:31:55;;;;;;;;;;;19.60;45.10;;;;;;9022309;26;20004;-58
2024/04/14 13:35:56;;;;;;;;;;;19.60;45.10;;;;;;9020859;26;19929;-58
2024/04/14 13:39:57;;;;;;;;;;;19.60;45.10;;;;;;9022213;26;19934;-58
2024/04/14 13:43:57;;;;;;;;;;;19.60;45.10;;;;;;9022142;26;20036;-59
2024/04/14 13:47:58;;;;;;;;;;;19.60;45.10;;;;;;9021582;26;19928;-59
2024/04/14 13:51:58;;;;;;;;;;;19.60;45.10;;;;;;9021723;26;19935;-59
2024/04/14 13:55:59;;;;;;;;;;;19.60;45.10;;;;;;9021051;26;19929;-59
2024/04/14 14:00:00;;;;;;;;;;;19.60;45.10;;;;;;9021373;26;19936;-59
2024/04/14 14:04:00;;;;;;;;;;;19.60;45.10;;;;;;9021414;26;20338;-58
2024/04/14 14:08:01;;;;;;;;;;;19.70;45.20;;;;;;9021043;26;19962;-56
2024/04/14 14:12:02;;;;;;;;;;;19.60;45.10;;;;;;9021435;26;19928;-58
2024/04/14 14:16:04;;;;;;;;;;;19.70;45.10;;;;;;9021248;26;19928;-58
2024/04/14 14:20:05;;;;;;;;;;;19.70;45.10;;;;;;9020771;26;19997;-58
2024/04/14 14:24:05;;;;;;;;;;;19.70;45.10;;;;;;9020726;26;19941;-58
2024/04/14 14:28:06;;;;;;;;;;;19.60;45.10;;;;;;9020689;26;19929;-57
2024/04/14 14:32:07;;;;;;;;;;;19.70;45.10;;;;;;9020718;26;19940;-58
2024/04/14 14:40:26;;;;;;;;;;;19.70;45.10;;;;;;9021032;26;19928;-59
2024/04/14 14:44:27;;;;;;;;;;;19.70;45.10;;;;;;9020300;26;19934;-58
2024/04/14 14:48:28;;;;;;;;;;;19.70;45.10;;;;;;9020650;26;19929;-59
2024/04/14 14:52:28;;;;;;;;;;;19.80;45.00;;;;;;9017993;26;19935;-59
2024/04/14 14:56:29;;;;;;;;;;;20.00;45.50;;;;;;9019653;26;19929;-59
2024/04/14 15:00:30;;;;;;;;;;;20.20;46.10;;;;;;9020397;26;19996;-58
2024/04/14 15:04:31;;;;;;;;;;;20.30;45.90;;;;;;8988520;26;20284;-59
2024/04/14 15:08:31;;;;;;;;;;;20.40;46.40;;;;;;9020166;26;19939;-60
2024/04/14 15:12:35;;;;;;;;;;;20.40;45.90;;;;;;8988593;26;19956;-59
2024/04/14 15:16:35;;;;;;;;;;;20.40;46.00;;;;;;9019756;26;19997;-60
2024/04/14 15:20:36;;;;;;;;;;;20.40;44.60;;;;;;8987791;26;19929;-60
2024/04/14 15:24:38;;;;;;;;;;;20.40;44.10;;;;;;9019263;26;19998;-58
2024/04/14 15:28:39;;;;;;;;;;;20.30;44.20;;;;;;9019422;26;20371;-58
2024/04/14 15:32:41;;;;;;;;;;;20.20;44.30;;;;;;8998907;26;20382;-61
2024/04/14 15:36:41;;;;;;;;;;;20.10;44.60;;;;;;8959580;26;19929;-58
2024/04/14 15:40:46;;;;;;;;;;;20.00;45.60;;;;;;8959640;26;19957;-60
2024/04/14 15:44:47;;;;;;;;;;;20.00;46.10;;;;;;8959453;26;20415;-60
2024/04/14 15:48:52;;;;;;;;;;;19.90;46.30;;;;;;8959434;26;20397;-60
2024/04/14 15:52:52;;;;;;;;;;;19.90;46.50;;;;;;8959610;26;19937;-60
2024/04/14 15:56:53;;;;;;;;;;;19.90;46.50;;;;;;8960802;26;19998;-58
2024/04/14 16:00:58;;;;;;;;;;;19.90;46.60;;;;;;8964915;26;19940;-59
2024/04/14 16:04:59;;;;;;;;;;;19.90;46.70;;;;;;8960886;26;20002;-60
2024/04/14 16:08:59;;;;;;;;;;;19.90;46.80;;;;;;8967044;26;20382;-63
2024/04/14 16:13:00;;;;;;;;;;;19.90;46.70;;;;;;8968498;26;19935;-62
2024/04/14 16:17:02;;;;;;;;;;;20.00;46.30;;;;;;8968431;26;19941;-59
2024/04/14 16:21:03;;;;;;;;;;;20.10;45.90;;;;;;8969032;26;20008;-58
2024/04/14 16:25:04;;;;;;;;;;;20.10;46.10;;;;;;8968348;26;19937;-59
2024/04/14 16:29:05;;;;;;;;;;;20.10;45.80;;;;;;8967019;26;19998;-60
2024/04/14 16:33:05;;;;;;;;;;;20.10;45.80;;;;;;8995082;26;19929;-57
2024/04/14 16:37:06;;;;;;;;;;;20.10;46.00;;;;;;9028494;26;19965;-58
2024/04/14 16:41:06;;;;;;;;;;;20.10;45.60;;;;;;9028535;26;19936;-58
2024/04/14 16:45:07;;;;;;;;;;;20.10;45.70;;;;;;9027769;26;19961;-59
2024/04/14 16:49:08;;;;;;;;;;;20.20;45.80;;;;;;9027950;26;19928;-58
2024/04/14 16:53:09;;;;;;;;;;;20.20;45.80;;;;;;9027463;26;19928;-58
2024/04/14 16:57:09;;;;;;;;;;;20.20;46.30;;;;;;9027296;26;19997;-60
2024/04/14 17:01:10;;;;;;;;;;;20.20;47.30;;;;;;9027540;26;19928;-58
2024/04/14 17:05:11;;;;;;;;;;;20.20;47.00;;;;;;9026758;26;19928;-60
2024/04/14 17:09:11;;;;;;;;;;;20.20;46.60;;;;;;9026946;26;20267;-59
2024/04/14 17:13:12;;;;;;;;;;;20.20;46.50;;;;;;9027728;26;19956;-60
2024/04/14 17:17:13;;;;;;;;;;;20.20;46.50;;;;;;9026992;26;19936;-60
2024/04/14 17:21:13;;;;;;;;;;;20.20;45.90;;;;;;9026387;26;19932;-58
2024/04/14 17:25:14;;;;;;;;;;;20.20;46.10;;;;;;9027034;26;19939;-61
2024/04/14 17:29:14;;;;;;;;;;;20.20;46.10;;;;;;9026273;26;19943;-61
2024/04/14 17:33:15;;;;;;;;;;;20.20;46.20;;;;;;8994643;26;20447;-58
2024/04/14 17:37:16;;;;;;;;;;;20.30;46.40;;;;;;9026025;26;19961;-62
2024/04/14 17:41:16;;;;;;;;;;;20.30;46.30;;;;;;9026210;26;20366;-59
2024/04/14 17:45:17;;;;;;;;;;;20.30;46.30;;;;;;9025671;26;19932;-60
2024/04/14 17:49:17;;;;;;;;;;;20.20;46.30;;;;;;9026051;26;19935;-61
2024/04/14 17:53:18;;;;;;;;;;;20.30;46.30;;;;;;9025354;26;19932;-61
2024/04/14 17:57:19;;;;;;;;;;;20.30;46.40;;;;;;9025732;26;19941;-61
2024/04/14 18:01:20;;;;;;;;;;;20.30;46.20;;;;;;9025974;26;20431;-59
2024/04/14 18:05:20;;;;;;;;;;;20.30;46.10;;;;;;9025684;26;19936;-60
2024/04/14 18:09:21;;;;;;;;;;;20.30;46.20;;;;;;9025826;26;20001;-60
2024/04/14 18:13:22;;;;;;;;;;;20.30;45.90;;;;;;9026106;26;19936;-61
2024/04/14 18:17:22;;;;;;;;;;;20.30;46.00;;;;;;9025720;26;20295;-61
2024/04/14 18:21:23;;;;;;;;;;;20.30;46.10;;;;;;8992833;26;19929;-62
2024/04/14 18:25:24;;;;;;;;;;;20.30;46.10;;;;;;9025131;26;20351;-61
2024/04/14 18:29:24;;;;;;;;;;;20.30;46.20;;;;;;9025376;26;20361;-60
2024/04/14 18:33:25;;;;;;;;;;;20.30;46.20;;;;;;9024961;26;19928;-62
2024/04/14 18:37:26;;;;;;;;;;;20.30;46.10;;;;;;9025359;26;19940;-60
2024/04/14 18:41:26;;;;;;;;;;;20.30;46.10;;;;;;9025353;26;19928;-58
2024/04/14 18:45:27;;;;;;;;;;;20.30;46.30;;;;;;9024685;26;19952;-59
2024/04/14 18:49:28;;;;;;;;;;;20.30;46.40;;;;;;9051525;26;19928;-59
2024/04/14 18:53:29;;;;;;;;;;;20.30;46.30;;;;;;9084846;26;19934;-59
2024/04/14 18:57:29;;;;;;;;;;;20.40;46.30;;;;;;9043813;26;20347;-60
2024/04/14 19:01:30;;;;;;;;;;;20.30;46.20;;;;;;9024280;26;19935;-60
2024/04/14 19:05:33;;;;;;;;;;;20.30;46.20;;;;;;9024080;26;20382;-60
2024/04/14 19:09:34;;;;;;;;;;;20.30;46.20;;;;;;9024436;26;19928;-59
2024/04/14 19:13:34;;;;;;;;;;;20.30;46.20;;;;;;9057616;26;19935;-60
2024/04/14 19:17:35;;;;;;;;;;;20.30;46.40;;;;;;9084106;26;19992;-61
2024/04/14 19:21:35;;;;;;;;;;;20.30;46.50;;;;;;9084217;26;20377;-59
2024/04/14 19:25:36;;;;;;;;;;;20.30;46.50;;;;;;9083627;26;19934;-60
2024/04/14 19:29:36;;;;;;;;;;;20.30;46.40;;;;;;9083814;26;19944;-66
2024/04/14 19:33:37;;;;;;;;;;;20.30;46.50;;;;;;9030076;26;19935;-64
2024/04/14 19:37:37;;;;;;;;;;;20.30;46.50;;;;;;9029870;26;19940;-58
2024/04/14 19:41:38;;;;;;;;;;;20.40;46.40;;;;;;9029318;26;20266;-59
2024/04/14 19:45:39;;;;;;;;;;;20.30;46.40;;;;;;9029032;26;19933;-60
2024/04/14 19:49:39;;;;;;;;;;;20.30;46.30;;;;;;9028983;26;20439;-60
2024/04/14 19:53:40;;;;;;;;;;;20.30;46.50;;;;;;9028564;26;19940;-64
2024/04/14 19:57:40;;;;;;;;;;;20.40;46.20;;;;;;9028477;26;19956;-60
2024/04/14 20:01:41;;;;;;;;;;;20.40;46.50;;;;;;9028719;26;20262;-66
2024/04/14 20:05:42;;;;;;;;;;;20.40;46.60;;;;;;9028243;26;19929;-59
2024/04/14 20:09:42;;;;;;;;;;;20.40;46.60;;;;;;9028496;26;19929;-60
2024/04/14 20:13:43;;;;;;;;;;;20.30;46.60;;;;;;8997278;26;19957;-60
2024/04/14 20:17:43;;;;;;;;;;;20.30;46.60;;;;;;9028722;26;20386;-59
2024/04/14 20:21:44;;;;;;;;;;;20.30;46.60;;;;;;9027915;26;19956;-59
2024/04/14 20:25:44;;;;;;;;;;;20.30;46.60;;;;;;9028284;26;20274;-59
2024/04/14 20:29:45;;;;;;;;;;;20.30;46.60;;;;;;9028369;26;19941;-62
2024/04/14 20:33:46;;;;;;;;;;;20.40;46.50;;;;;;9027549;26;19937;-63
2024/04/14 20:37:46;;;;;;;;;;;20.30;46.50;;;;;;9027839;26;19939;-62
2024/04/14 20:41:47;;;;;;;;;;;20.30;46.40;;;;;;9027265;26;19928;-63
2024/04/14 20:45:47;;;;;;;;;;;20.30;46.50;;;;;;9027689;26;19928;-62
2024/04/14 20:49:49;;;;;;;;;;;20.30;46.20;;;;;;9040023;26;19936;-61
2024/04/14 20:53:49;;;;;;;;;;;20.30;46.30;;;;;;8990058;26;20006;-56
2024/04/14 20:57:50;;;;;;;;;;;20.30;46.20;;;;;;8990047;26;19929;-56
2024/04/14 21:01:50;;;;;;;;;;;20.30;46.20;;;;;;9020919;26;19935;-57
2024/04/14 21:05:51;;;;;;;;;;;20.20;46.30;;;;;;8991673;26;19929;-59
2024/04/14 21:09:51;;;;;;;;;;;20.20;46.50;;;;;;8991184;26;19957;-59
2024/04/14 21:13:52;;;;;;;;;;;20.20;46.50;;;;;;8991483;26;19929;-59
2024/04/14 21:17:53;;;;;;;;;;;20.10;46.40;;;;;;9022777;26;19934;-58
2024/04/14 21:21:53;;;;;;;;;;;20.10;46.40;;;;;;8991028;26;19978;-59
2024/04/14 21:26:00;;;;;;;;;;;20.10;46.30;;;;;;9022444;26;19935;-59
2024/04/14 21:30:01;;;;;;;;;;;20.00;46.30;;;;;;9022700;26;19933;-59
2024/04/14 21:34:03;;;;;;;;;;;20.00;46.30;;;;;;9021752;26;19969;-59
2024/04/14 21:38:04;;;;;;;;;;;20.00;46.30;;;;;;8991183;26;19997;-58
2024/04/14 21:42:05;;;;;;;;;;;20.00;46.30;;;;;;9021793;26;19929;-58
2024/04/14 21:46:06;;;;;;;;;;;20.00;46.30;;;;;;9022125;26;20274;-58
2024/04/14 21:50:06;;;;;;;;;;;20.00;46.30;;;;;;9058238;26;19935;-59
2024/04/14 21:54:07;;;;;;;;;;;19.90;46.20;;;;;;9049045;26;19928;-59
2024/04/14 21:58:08;;;;;;;;;;;20.00;46.30;;;;;;9031214;26;20286;-59
2024/04/14 22:02:08;;;;;;;;;;;20.00;46.30;;;;;;9021060;26;20370;-57
2024/04/14 22:06:09;;;;;;;;;;;20.00;46.30;;;;;;9021841;26;19961;-59
2024/04/14 22:10:10;;;;;;;;;;;20.00;46.30;;;;;;9020971;26;19938;-59
2024/04/14 22:14:10;;;;;;;;;;;19.90;46.20;;;;;;9016526;26;19935;-57
2024/04/14 22:18:11;;;;;;;;;;;19.90;46.20;;;;;;9021344;26;19929;-59
2024/04/14 22:22:11;;;;;;;;;;;19.90;46.20;;;;;;9020490;26;20385;-59
2024/04/14 22:26:12;;;;;;;;;;;19.90;46.20;;;;;;9021312;26;20357;-58
2024/04/14 22:30:12;;;;;;;;;;;19.90;46.20;;;;;;9020901;26;19928;-59
2024/04/14 22:34:13;;;;;;;;;;;19.90;46.30;;;;;;9020774;26;19936;-58
2024/04/14 22:38:14;;;;;;;;;;;19.90;46.30;;;;;;9021305;26;19936;-59
2024/04/14 22:42:14;;;;;;;;;;;19.90;46.30;;;;;;9020989;26;19928;-59
2024/04/14 22:46:15;;;;;;;;;;;19.90;46.30;;;;;;9020664;26;19935;-58
2024/04/14 22:50:16;;;;;;;;;;;19.90;46.30;;;;;;9059385;26;19935;-58
2024/04/14 22:54:16;;;;;;;;;;;19.90;46.30;;;;;;9080474;26;19928;-58
2024/04/14 22:58:17;;;;;;;;;;;19.80;46.20;;;;;;9028036;26;19929;-57
2024/04/14 23:02:17;;;;;;;;;;;19.90;46.30;;;;;;9020291;26;19977;-58
2024/04/14 23:06:18;;;;;;;;;;;19.80;46.20;;;;;;9019364;26;19928;-58
2024/04/14 23:10:18;;;;;;;;;;;19.90;46.20;;;;;;8988720;26;20366;-58
2024/04/14 23:14:19;;;;;;;;;;;19.90;46.30;;;;;;9020096;26;20005;-58
2024/04/14 23:18:20;;;;;;;;;;;19.90;46.20;;;;;;9019401;26;19936;-57
2024/04/14 23:22:21;;;;;;;;;;;19.90;46.20;;;;;;9019849;26;20414;-58